Time;durP1;ratioP1;P1;durP2;ratioP2;P2;SDS_P1;SDS_P2;PMS_P1;PMS_P2;Temp;Humidity;BMP_temperature;BMP_pressure;BME280_temperature;BME280_humidity;BME280_pressure;Samples;Min_cycle;Max_cycle;Signal;HPM_P1;HPM_P2
2021/07/21 00:00:55;;;;;;;6.53;4.43;;;18.60;99.90;;;;;;4131238;28;20479;-72
2021/07/21 00:02:56;;;;;;;6.65;4.32;;;18.60;99.90;;;;;;4152400;28;20033;-72
2021/07/21 00:04:57;;;;;;;7.45;4.18;;;18.60;99.90;;;;;;4147038;28;20148;-73
2021/07/21 00:06:58;;;;;;;4.85;3.78;;;18.60;99.90;;;;;;4147411;28;20153;-72
2021/07/21 00:08:58;;;;;;;5.18;3.72;;;18.60;99.90;;;;;;4145412;28;20030;-73
2021/07/21 00:13:29;;;;;;;9.10;4.28;;;18.50;99.90;;;;;;4146235;28;20164;-73
2021/07/21 00:15:32;;;;;;;6.25;4.07;;;18.50;99.90;;;;;;4124567;28;20130;-72
2021/07/21 00:17:34;;;;;;;5.55;4.00;;;18.50;99.90;;;;;;4147036;28;20037;-73
2021/07/21 00:21:55;;;;;;;6.72;4.60;;;18.50;99.90;;;;;;4141812;28;20065;-73
2021/07/21 00:23:55;;;;;;;8.43;4.35;;;18.50;99.90;;;;;;4147525;28;20044;-73
2021/07/21 00:25:56;;;;;;;5.90;4.00;;;18.40;99.90;;;;;;4145619;28;20049;-73
2021/07/21 00:27:57;;;;;;;8.13;4.55;;;18.40;99.90;;;;;;4130324;28;20038;-72
2021/07/21 00:29:57;;;;;;;7.32;4.18;;;18.40;99.90;;;;;;4147227;28;20046;-72
2021/07/21 00:31:58;;;;;;;6.50;4.40;;;18.40;99.90;;;;;;4144681;28;20077;-73
2021/07/21 00:33:59;;;;;;;8.15;4.15;;;18.40;99.90;;;;;;4153098;28;20124;-72
2021/07/21 00:35:59;;;;;;;7.53;4.50;;;18.40;99.90;;;;;;4153170;28;20113;-72
2021/07/21 00:38:00;;;;;;;7.03;4.68;;;18.40;99.90;;;;;;4125956;28;20041;-72
2021/07/21 00:40:01;;;;;;;7.55;4.57;;;18.40;99.90;;;;;;4146122;28;20375;-72
2021/07/21 00:42:02;;;;;;;5.45;3.85;;;18.40;99.90;;;;;;4150121;28;20076;-73
2021/07/21 00:44:04;;;;;;;5.72;3.92;;;18.30;99.90;;;;;;4125854;28;20117;-72
2021/07/21 00:46:04;;;;;;;6.10;3.83;;;18.30;99.90;;;;;;4151365;28;20042;-72
2021/07/21 00:48:05;;;;;;;6.68;4.75;;;18.30;99.90;;;;;;4150031;28;20033;-73
2021/07/21 00:50:08;;;;;;;8.80;4.65;;;18.30;99.90;;;;;;4132130;28;20128;-72
2021/07/21 00:52:08;;;;;;;7.50;5.05;;;18.20;99.90;;;;;;4150395;28;20029;-73
2021/07/21 00:54:09;;;;;;;6.15;4.35;;;18.20;99.90;;;;;;4133584;28;20039;-73
2021/07/21 00:56:10;;;;;;;9.95;5.03;;;18.20;99.90;;;;;;4149615;28;20057;-73
2021/07/21 00:58:10;;;;;;;6.97;4.40;;;18.20;99.90;;;;;;4133852;28;20030;-73
2021/07/21 01:00:14;;;;;;;5.90;4.47;;;18.20;99.90;;;;;;4148732;28;20034;-73
2021/07/21 01:02:16;;;;;;;5.72;3.92;;;18.10;99.90;;;;;;4138943;28;20045;-73
2021/07/21 01:04:17;;;;;;;7.72;4.78;;;18.10;99.90;;;;;;4142069;28;20041;-72
2021/07/21 01:06:17;;;;;;;7.30;4.88;;;18.10;99.90;;;;;;4142168;28;20112;-72
2021/07/21 01:08:20;;;;;;;9.48;4.95;;;18.00;99.90;;;;;;4143405;28;20038;-72
2021/07/21 01:10:22;;;;;;;;;;;18.00;99.90;;;;;;4145712;28;20060;-72
2021/07/21 01:13:10;;;;;;;8.55;4.88;;;18.00;99.90;;;;;;4143406;28;19913;-73
2021/07/21 01:15:20;;;;;;;6.15;4.45;;;17.90;99.90;;;;;;4049129;29;20032;-72
2021/07/21 01:17:26;;;;;;;8.77;5.38;;;17.90;99.90;;;;;;4122865;28;20041;-72
2021/07/21 01:20:07;;;;;;;7.38;4.75;;;17.90;99.90;;;;;;4127276;28;20482;-73
2021/07/21 01:22:18;;;;;;;7.70;5.03;;;17.80;99.90;;;;;;4139280;28;20037;-72
2021/07/21 01:24:28;;;;;;;8.13;4.90;;;17.90;99.90;;;;;;4143451;28;20034;-72
2021/07/21 01:26:42;;;;;;;7.15;4.75;;;17.80;99.90;;;;;;4141874;28;20041;-73
2021/07/21 01:28:46;;;;;;;5.85;3.88;;;17.80;99.90;;;;;;4149043;28;20051;-72
2021/07/21 01:30:49;;;;;;;6.32;4.75;;;17.80;99.90;;;;;;4147272;28;20489;-73
2021/07/21 01:32:57;;;;;;;8.23;5.18;;;17.80;99.90;;;;;;4150858;28;20426;-73
2021/07/21 01:35:22;;;;;;;8.02;4.60;;;17.80;99.90;;;;;;4142015;28;20034;-73
2021/07/21 01:37:23;;;;;;;6.90;4.97;;;17.80;99.90;;;;;;4142869;28;20360;-73
2021/07/21 01:39:36;;;;;;;6.28;4.90;;;17.80;99.90;;;;;;4144086;28;20685;-73
2021/07/21 01:41:43;;;;;;;6.40;4.55;;;17.80;99.90;;;;;;4156427;28;20033;-72
2021/07/21 01:43:48;;;;;;;7.55;5.30;;;17.70;99.90;;;;;;4129379;28;20073;-73
2021/07/21 01:45:51;;;;;;;6.95;4.97;;;17.70;99.90;;;;;;4147512;28;20065;-73
2021/07/21 01:47:52;;;;;;;7.45;5.13;;;17.70;99.90;;;;;;4146940;28;20444;-72
2021/07/21 01:49:54;;;;;;;6.57;4.60;;;17.70;99.90;;;;;;4152259;28;20045;-72
2021/07/21 01:51:57;;;;;;;7.37;4.67;;;17.70;99.90;;;;;;4150848;28;20046;-73
2021/07/21 01:53:59;;;;;;;5.88;4.15;;;17.70;99.90;;;;;;4132456;28;20276;-73
2021/07/21 01:56:00;;;;;;;7.75;4.47;;;17.60;99.90;;;;;;4148945;28;20833;-72
2021/07/21 01:58:03;;;;;;;6.78;4.60;;;17.70;99.90;;;;;;4156150;28;20584;-73
2021/07/21 02:00:07;;;;;;;;;;;17.70;99.90;;;;;;4133371;28;20718;-72
2021/07/21 02:02:08;;;;;;;7.82;4.47;;;17.60;99.90;;;;;;4146126;28;19913;-73
2021/07/21 02:04:09;;;;;;;9.75;4.80;;;17.60;99.90;;;;;;4155210;28;20111;-72
2021/07/21 02:06:10;;;;;;;6.97;4.82;;;17.60;99.90;;;;;;4155968;28;20049;-73
2021/07/21 02:08:12;;;;;;;8.48;4.88;;;17.60;99.90;;;;;;4132912;28;20031;-73
2021/07/21 02:10:19;;;;;;;8.07;5.25;;;17.60;99.90;;;;;;4153860;28;20487;-73
2021/07/21 02:12:20;;;;;;;6.80;4.78;;;17.50;99.90;;;;;;4146037;28;20391;-73
2021/07/21 02:14:21;;;;;;;6.88;4.75;;;17.50;99.90;;;;;;4132951;28;20049;-73
2021/07/21 02:16:23;;;;;;;7.13;4.95;;;17.50;99.90;;;;;;4154969;28;20049;-73
2021/07/21 02:18:24;;;;;;;6.50;5.05;;;17.50;99.90;;;;;;4127021;28;20033;-73
2021/07/21 02:20:28;;;;;;;8.50;5.22;;;17.50;99.90;;;;;;4146877;28;20090;-73
2021/07/21 02:22:29;;;;;;;7.72;4.90;;;17.50;99.90;;;;;;4150081;28;20044;-73
2021/07/21 02:24:30;;;;;;;6.93;4.70;;;17.50;99.90;;;;;;4128312;28;20678;-72
2021/07/21 02:26:38;;;;;;;6.47;4.50;;;17.40;99.90;;;;;;4129107;28;20686;-72
2021/07/21 02:28:38;;;;;;;7.18;4.85;;;17.40;99.90;;;;;;4149929;28;20099;-73
2021/07/21 02:30:39;;;;;;;10.88;5.18;;;17.40;99.90;;;;;;4146144;28;20523;-72
2021/07/21 02:33:00;;;;;;;7.97;4.50;;;17.40;99.90;;;;;;4149603;28;20049;-72
2021/07/21 02:35:02;;;;;;;6.93;4.43;;;17.40;99.90;;;;;;4147257;28;20103;-72
2021/07/21 02:37:03;;;;;;;8.40;4.97;;;17.40;99.90;;;;;;4148699;28;20096;-73
2021/07/21 02:39:06;;;;;;;8.98;4.45;;;17.40;99.90;;;;;;4148754;28;20041;-72
2021/07/21 02:41:07;;;;;;;6.43;4.50;;;17.40;99.90;;;;;;4152483;28;20042;-72
2021/07/21 02:43:07;;;;;;;6.20;4.55;;;17.40;99.90;;;;;;4135048;28;20057;-72
2021/07/21 02:45:09;;;;;;;6.43;4.22;;;17.30;99.90;;;;;;4130945;28;20575;-72
2021/07/21 02:47:11;;;;;;;7.85;4.47;;;17.30;99.90;;;;;;4145943;28;20110;-73
2021/07/21 02:49:11;;;;;;;11.20;5.10;;;17.30;99.90;;;;;;4132403;28;20023;-73
2021/07/21 02:51:22;;;;;;;7.68;4.82;;;17.30;99.90;;;;;;4147711;28;20117;-73
2021/07/21 02:53:34;;;;;;;6.60;4.32;;;17.30;99.90;;;;;;4132659;28;20034;-73
2021/07/21 02:55:46;;;;;;;8.55;5.50;;;17.30;99.90;;;;;;4148496;28;20554;-72
2021/07/21 02:58:12;;;;;;;6.60;4.68;;;17.20;99.90;;;;;;4143904;28;20049;-72
2021/07/21 03:00:16;;;;;;;8.60;5.57;;;17.20;99.90;;;;;;4146686;28;20453;-72
2021/07/21 03:02:22;;;;;;;7.10;4.93;;;17.20;99.90;;;;;;4144015;28;20030;-72
2021/07/21 03:04:24;;;;;;;7.30;4.95;;;17.20;99.90;;;;;;4131107;28;20117;-73
2021/07/21 03:06:26;;;;;;;7.40;4.40;;;17.20;99.90;;;;;;4129426;28;20151;-72
2021/07/21 03:08:29;;;;;;;7.75;4.53;;;17.20;99.90;;;;;;4146645;28;20045;-73
2021/07/21 03:10:31;;;;;;;9.43;4.35;;;17.10;99.90;;;;;;4148722;28;20113;-73
2021/07/21 03:12:37;;;;;;;7.32;4.32;;;17.20;99.90;;;;;;4148033;28;20121;-73
2021/07/21 03:14:41;;;;;;;5.82;4.13;;;17.10;99.90;;;;;;4133312;28;20046;-73
2021/07/21 03:16:45;;;;;;;8.10;4.38;;;17.10;99.90;;;;;;4137958;28;20378;-72
2021/07/21 03:18:47;;;;;;;6.97;4.40;;;17.10;99.90;;;;;;4127423;28;20037;-72
2021/07/21 03:20:49;;;;;;;6.25;4.32;;;17.10;99.90;;;;;;4150475;28;20037;-72
2021/07/21 03:22:53;;;;;;;6.23;4.40;;;17.10;99.90;;;;;;4147451;28;20525;-72
2021/07/21 03:24:55;;;;;;;7.32;4.28;;;17.10;99.90;;;;;;4147316;28;20049;-73
2021/07/21 03:26:57;;;;;;;9.00;5.15;;;17.10;99.90;;;;;;4143613;28;20042;-73
2021/07/21 03:28:58;;;;;;;7.88;4.80;;;17.10;99.90;;;;;;4144504;28;20038;-72
2021/07/21 03:31:00;;;;;;;7.28;4.82;;;17.00;99.90;;;;;;4147953;28;20034;-72
2021/07/21 03:33:03;;;;;;;8.55;4.60;;;17.00;99.90;;;;;;4152228;28;20040;-72
2021/07/21 03:35:06;;;;;;;6.80;4.45;;;17.00;99.90;;;;;;4152095;28;20477;-73
2021/07/21 03:37:10;;;;;;;7.13;4.30;;;17.00;99.90;;;;;;4146796;28;20120;-72
2021/07/21 03:39:12;;;;;;;6.45;4.43;;;17.00;99.90;;;;;;4132040;28;20042;-72
2021/07/21 03:41:13;;;;;;;7.30;4.72;;;17.00;99.90;;;;;;4146502;28;20069;-73
2021/07/21 03:43:14;;;;;;;6.15;4.40;;;17.00;99.90;;;;;;4144125;28;20034;-73
2021/07/21 03:45:15;;;;;;;7.78;5.40;;;16.90;99.90;;;;;;4128279;28;20069;-73
2021/07/21 03:47:16;;;;;;;7.07;4.72;;;17.00;99.90;;;;;;4148581;28;20096;-72
2021/07/21 03:49:18;;;;;;;8.00;4.68;;;17.00;99.90;;;;;;4148040;28;20048;-73
2021/07/21 03:51:19;;;;;;;7.30;4.65;;;16.90;99.90;;;;;;4148218;28;20041;-72
2021/07/21 03:53:21;;;;;;;7.25;4.90;;;16.90;99.90;;;;;;4153648;28;20033;-72
2021/07/21 03:55:25;;;;;;;8.82;4.47;;;16.90;99.90;;;;;;4126417;28;20038;-72
2021/07/21 03:57:26;;;;;;;6.13;4.38;;;16.90;99.90;;;;;;4142524;28;20060;-72
2021/07/21 03:59:27;;;;;;;7.47;4.53;;;16.90;99.90;;;;;;4129065;28;20045;-73
2021/07/21 04:01:28;;;;;;;8.48;4.72;;;16.90;99.90;;;;;;4147419;28;20088;-72
2021/07/21 04:03:30;;;;;;;5.40;3.95;;;16.90;99.90;;;;;;4143073;28;20034;-73
2021/07/21 04:05:32;;;;;;;7.20;4.32;;;16.90;99.90;;;;;;4148353;28;20072;-72
2021/07/21 04:07:36;;;;;;;10.27;4.00;;;16.80;99.90;;;;;;4151303;28;20037;-73
2021/07/21 04:09:38;;;;;;;9.18;4.57;;;16.80;99.90;;;;;;4144990;28;20375;-72
2021/07/21 04:11:40;;;;;;;6.60;4.35;;;16.80;99.90;;;;;;4144935;28;20042;-72
2021/07/21 04:13:42;;;;;;;6.45;4.05;;;16.70;99.90;;;;;;4149795;28;20042;-72
2021/07/21 04:15:44;;;;;;;7.20;4.75;;;16.70;99.90;;;;;;4129031;28;20030;-73
2021/07/21 04:17:45;;;;;;;;;;;16.70;99.90;;;;;;4146758;28;20510;-73
2021/07/21 04:19:48;;;;;;;6.15;3.83;;;16.60;99.90;;;;;;4129414;28;20605;-73
2021/07/21 04:21:51;;;;;;;9.63;5.22;;;16.60;99.90;;;;;;4142370;28;20041;-72
2021/07/21 04:23:52;;;;;;;7.22;4.63;;;16.60;99.90;;;;;;4149340;28;20037;-72
2021/07/21 04:25:54;;;;;;;7.20;4.80;;;16.60;99.90;;;;;;4146819;28;20060;-72
2021/07/21 04:27:58;;;;;;;5.80;4.20;;;16.60;99.90;;;;;;4150863;28;20038;-72
2021/07/21 04:29:58;;;;;;;6.28;4.72;;;16.60;99.90;;;;;;4148501;28;20489;-72
2021/07/21 04:32:00;;;;;;;7.30;4.53;;;16.60;99.90;;;;;;4143509;28;20061;-73
2021/07/21 04:34:04;;;;;;;6.05;4.25;;;16.60;99.90;;;;;;4149688;28;20580;-72
2021/07/21 04:36:04;;;;;;;9.35;4.60;;;16.70;99.90;;;;;;4150092;28;20483;-72
2021/07/21 04:38:05;;;;;;;6.88;4.88;;;16.70;99.90;;;;;;4145221;28;20040;-73
2021/07/21 04:40:10;;;;;;;8.20;5.10;;;16.70;99.90;;;;;;4144052;28;20038;-72
2021/07/21 04:42:11;;;;;;;7.53;4.80;;;16.70;99.90;;;;;;4146325;28;20038;-72
2021/07/21 04:44:13;;;;;;;8.93;4.85;;;16.70;99.90;;;;;;4143612;28;20033;-72
2021/07/21 04:46:16;;;;;;;6.68;4.50;;;16.80;99.90;;;;;;4142687;28;20505;-72
2021/07/21 04:48:18;;;;;;;7.75;5.18;;;16.80;99.90;;;;;;4149579;28;20052;-72
2021/07/21 04:50:22;;;;;;;6.80;5.05;;;16.80;99.90;;;;;;4150473;28;20049;-73
2021/07/21 04:52:25;;;;;;;8.30;5.00;;;16.90;99.90;;;;;;4146915;28;20032;-73
2021/07/21 04:54:28;;;;;;;6.43;4.57;;;16.90;99.90;;;;;;4154738;28;20456;-73
2021/07/21 04:56:28;;;;;;;7.35;4.82;;;16.90;99.90;;;;;;4147538;28;20129;-72
2021/07/21 04:58:29;;;;;;;7.78;4.90;;;16.90;99.90;;;;;;4143957;28;20099;-73
2021/07/21 05:00:29;;;;;;;5.25;4.40;;;17.00;99.90;;;;;;4145810;28;20038;-73
2021/07/21 05:02:30;;;;;;;12.10;4.90;;;17.00;99.90;;;;;;4133301;28;20038;-72
2021/07/21 05:04:34;;;;;;;8.63;4.82;;;16.90;99.90;;;;;;4127090;28;20122;-72
2021/07/21 05:06:34;;;;;;;6.60;4.45;;;17.00;99.90;;;;;;4148623;28;20038;-72
2021/07/21 05:08:35;;;;;;;7.47;5.00;;;17.00;99.90;;;;;;4149889;28;20098;-72
2021/07/21 05:10:36;;;;;;;8.65;5.43;;;17.00;99.90;;;;;;4150402;28;20040;-72
2021/07/21 05:12:43;;;;;;;7.40;4.53;;;17.00;99.90;;;;;;4149848;28;20128;-72
2021/07/21 05:14:44;;;;;;;7.55;4.80;;;17.00;99.90;;;;;;4145842;28;20141;-72
2021/07/21 05:16:44;;;;;;;8.80;5.20;;;17.00;99.90;;;;;;4127213;28;22346;-73
2021/07/21 05:18:46;;;;;;;10.05;5.40;;;17.00;99.90;;;;;;4134923;28;20049;-73
2021/07/21 05:20:47;;;;;;;8.88;5.15;;;17.00;99.90;;;;;;4143002;28;20057;-73
2021/07/21 05:22:47;;;;;;;7.78;5.38;;;17.00;99.90;;;;;;4131534;28;20049;-73
2021/07/21 05:24:48;;;;;;;8.88;5.13;;;17.10;99.90;;;;;;4138413;28;20500;-72
2021/07/21 05:26:49;;;;;;;8.68;5.45;;;17.10;99.90;;;;;;4130106;28;20125;-73
2021/07/21 05:28:49;;;;;;;8.27;5.70;;;17.10;99.90;;;;;;4149366;28;20092;-72
2021/07/21 05:30:50;;;;;;;7.15;4.78;;;17.20;99.90;;;;;;4148046;28;20807;-72
2021/07/21 05:32:50;;;;;;;6.20;4.50;;;17.20;99.90;;;;;;4145035;28;20093;-72
2021/07/21 05:34:51;;;;;;;9.23;5.22;;;17.20;99.90;;;;;;4139293;28;20065;-73
2021/07/21 05:36:51;;;;;;;8.70;5.38;;;17.30;99.90;;;;;;4145443;28;20021;-72
2021/07/21 05:38:52;;;;;;;9.38;4.78;;;17.30;99.90;;;;;;4142420;28;20048;-72
2021/07/21 05:40:53;;;;;;;7.88;5.47;;;17.40;99.90;;;;;;4143434;28;20022;-72
2021/07/21 05:42:53;;;;;;;8.77;5.13;;;17.40;99.90;;;;;;4138612;28;20033;-72
2021/07/21 05:44:54;;;;;;;8.05;5.60;;;17.40;99.90;;;;;;4125400;28;20039;-72
2021/07/21 05:46:54;;;;;;;8.85;5.45;;;17.50;99.90;;;;;;4141864;28;20038;-73
2021/07/21 05:48:55;;;;;;;8.75;5.90;;;17.60;99.90;;;;;;4146929;28;20363;-73
2021/07/21 05:50:55;;;;;;;9.30;6.13;;;17.60;99.90;;;;;;4136992;28;20034;-73
2021/07/21 05:52:57;;;;;;;10.32;6.28;;;17.60;99.90;;;;;;4148147;28;20485;-73
2021/07/21 05:54:58;;;;;;;9.38;5.93;;;17.70;99.90;;;;;;4129653;28;20479;-73
2021/07/21 05:56:58;;;;;;;9.55;6.30;;;17.70;99.90;;;;;;4143064;28;20122;-73
2021/07/21 05:58:59;;;;;;;10.48;5.80;;;17.80;99.90;;;;;;4139191;28;20034;-73
2021/07/21 06:01:00;;;;;;;8.90;6.28;;;17.80;99.90;;;;;;4131841;28;20034;-73
2021/07/21 06:03:00;;;;;;;8.75;5.80;;;17.90;99.90;;;;;;4119026;28;20394;-72
2021/07/21 06:05:01;;;;;;;10.38;6.78;;;17.90;99.90;;;;;;4114799;28;20061;-72
2021/07/21 06:07:03;;;;;;;11.63;6.40;;;18.00;99.90;;;;;;4137057;28;20059;-72
2021/07/21 06:09:04;;;;;;;11.48;6.88;;;18.10;99.90;;;;;;4131387;28;20157;-72
2021/07/21 06:11:06;;;;;;;9.68;7.13;;;18.30;99.90;;;;;;4133997;28;20131;-73
2021/07/21 06:13:07;;;;;;;11.02;6.90;;;18.60;99.90;;;;;;4130591;28;20046;-73
2021/07/21 06:15:08;;;;;;;9.85;6.68;;;19.00;99.90;;;;;;4115212;28;20102;-73
2021/07/21 06:17:09;;;;;;;11.93;7.18;;;19.30;99.90;;;;;;4130346;28;20486;-73
2021/07/21 06:19:10;;;;;;;11.00;6.40;;;19.70;99.90;;;;;;4131970;28;20117;-73
2021/07/21 06:21:11;;;;;;;11.98;6.43;;;20.20;99.90;;;;;;4114141;28;20660;-72
2021/07/21 06:23:12;;;;;;;10.93;6.18;;;20.60;99.90;;;;;;4133766;28;20043;-73
2021/07/21 06:25:13;;;;;;;7.68;5.25;;;21.00;99.90;;;;;;4132224;28;20030;-73
2021/07/21 06:27:14;;;;;;;8.23;5.32;;;21.30;99.90;;;;;;4131401;28;20089;-72
2021/07/21 06:29:15;;;;;;;9.00;5.18;;;21.70;99.90;;;;;;4132622;28;20026;-71
2021/07/21 06:31:17;;;;;;;7.45;4.88;;;22.10;99.90;;;;;;4130038;28;20030;-72
2021/07/21 06:33:18;;;;;;;10.48;5.05;;;22.40;99.90;;;;;;4132689;28;20493;-72
2021/07/21 06:35:19;;;;;;;10.23;5.45;;;22.80;99.90;;;;;;4128806;28;20034;-71
2021/07/21 06:37:22;;;;;;;9.90;4.80;;;23.00;99.90;;;;;;4134118;28;20485;-72
2021/07/21 06:39:22;;;;;;;8.60;5.05;;;23.10;99.90;;;;;;4132777;28;20030;-71
2021/07/21 06:41:23;;;;;;;10.07;5.57;;;23.30;99.90;;;;;;4133687;28;20113;-72
2021/07/21 06:43:24;;;;;;;22.58;4.85;;;23.40;99.90;;;;;;4114269;28;20163;-72
2021/07/21 06:45:24;;;;;;;7.55;4.78;;;23.40;99.90;;;;;;4132699;28;20042;-72
2021/07/21 06:47:25;;;;;;;7.40;4.65;;;23.40;99.90;;;;;;4134605;28;20389;-72
2021/07/21 06:49:26;;;;;;;8.15;4.38;;;23.30;99.90;;;;;;4130142;28;20027;-72
2021/07/21 06:51:26;;;;;;;5.93;3.63;;;23.30;99.90;;;;;;4129480;28;20504;-72
2021/07/21 06:53:30;;;;;;;8.88;4.20;;;23.20;99.90;;;;;;4131813;28;20483;-72
2021/07/21 06:55:31;;;;;;;10.05;4.50;;;23.20;99.90;;;;;;4133314;28;20047;-72
2021/07/21 06:57:31;;;;;;;8.60;4.30;;;23.10;99.90;;;;;;4134311;28;20095;-72
2021/07/21 06:59:32;;;;;;;7.65;4.63;;;23.10;99.90;;;;;;4130835;28;20219;-72
2021/07/21 07:01:33;;;;;;;9.73;4.82;;;23.00;99.90;;;;;;4098474;28;20047;-72
2021/07/21 07:03:37;;;;;;;5.82;3.60;;;22.90;99.90;;;;;;4131303;28;20723;-72
2021/07/21 07:05:37;;;;;;;8.95;3.97;;;22.80;99.90;;;;;;4131176;28;20480;-72
2021/07/21 07:07:38;;;;;;;7.35;4.07;;;22.70;99.90;;;;;;4112954;28;20133;-71
2021/07/21 07:09:39;;;;;;;9.57;4.40;;;22.60;99.90;;;;;;4131896;28;20042;-72
2021/07/21 07:11:39;;;;;;;9.23;4.50;;;22.60;99.90;;;;;;4113151;28;20034;-72
2021/07/21 07:13:40;;;;;;;7.95;4.50;;;22.50;99.90;;;;;;4117365;28;20038;-72
2021/07/21 07:15:41;;;;;;;7.45;4.45;;;22.40;99.90;;;;;;4114129;28;20793;-72
2021/07/21 07:17:41;;;;;;;7.28;4.30;;;22.30;99.90;;;;;;4129523;28;20030;-72
2021/07/21 07:19:42;;;;;;;8.27;4.50;;;22.20;99.90;;;;;;4131648;28;20074;-72
2021/07/21 07:21:43;;;;;;;11.25;4.75;;;22.10;99.90;;;;;;4112409;28;20045;-72
2021/07/21 07:23:45;;;;;;;14.15;4.90;;;21.90;99.90;;;;;;4117430;28;20053;-72
2021/07/21 07:25:46;;;;;;;8.67;4.43;;;21.90;99.90;;;;;;4110794;28;20050;-71
2021/07/21 07:27:46;;;;;;;11.48;4.40;;;21.90;99.90;;;;;;4131630;28;20269;-72
2021/07/21 07:29:47;;;;;;;11.88;4.68;;;21.90;99.90;;;;;;4132866;28;20042;-71
2021/07/21 07:31:47;;;;;;;11.20;5.30;;;21.80;99.90;;;;;;4130527;28;20410;-72
2021/07/21 07:33:48;;;;;;;11.20;5.43;;;21.80;99.90;;;;;;4129487;28;20042;-71
2021/07/21 07:35:49;;;;;;;8.95;5.10;;;21.80;99.90;;;;;;4112892;28;20039;-71
2021/07/21 07:37:50;;;;;;;8.73;5.00;;;21.80;99.90;;;;;;4132757;28;20125;-71
2021/07/21 07:39:50;;;;;;;7.25;4.20;;;21.80;99.90;;;;;;4130780;28;20057;-71
2021/07/21 07:41:51;;;;;;;12.30;4.82;;;21.70;99.90;;;;;;4131855;28;20034;-71
2021/07/21 07:43:52;;;;;;;9.68;4.55;;;21.70;99.90;;;;;;4130372;28;20054;-71
2021/07/21 07:45:55;;;;;;;7.90;4.63;;;21.60;99.90;;;;;;4130836;28;20499;-71
2021/07/21 07:47:56;;;;;;;7.43;4.20;;;21.60;99.90;;;;;;4096718;28;20031;-73
2021/07/21 07:49:57;;;;;;;6.57;4.18;;;21.50;99.90;;;;;;4107937;28;20039;-73
2021/07/21 07:51:58;;;;;;;7.93;4.20;;;21.60;99.90;;;;;;4116698;28;20035;-74
2021/07/21 07:53:59;;;;;;;10.70;4.20;;;21.60;99.90;;;;;;4114401;28;20046;-75
2021/07/21 07:56:00;;;;;;;9.05;4.40;;;21.60;99.90;;;;;;4133530;28;20057;-73
2021/07/21 07:58:01;;;;;;;6.88;4.43;;;21.50;99.90;;;;;;4131830;28;20392;-72
2021/07/21 08:00:04;;;;;;;9.02;4.57;;;21.50;99.90;;;;;;4131715;28;20038;-73
2021/07/21 08:02:05;;;;;;;7.95;4.07;;;21.60;99.90;;;;;;4113909;28;20042;-72
2021/07/21 08:04:06;;;;;;;6.47;4.20;;;21.60;99.90;;;;;;4131954;28;20045;-73
2021/07/21 08:06:06;;;;;;;7.43;4.35;;;21.70;99.90;;;;;;4132548;28;20046;-73
2021/07/21 08:08:07;;;;;;;8.20;4.43;;;21.70;99.90;;;;;;4110068;28;20176;-73
2021/07/21 08:10:13;;;;;;;7.75;4.03;;;21.70;99.90;;;;;;4129856;28;20038;-72
2021/07/21 08:12:13;;;;;;;8.70;4.82;;;21.80;99.90;;;;;;4130706;28;20113;-73
2021/07/21 08:14:17;;;;;;;6.63;3.85;;;21.80;99.90;;;;;;4116507;28;20070;-72
2021/07/21 08:16:18;;;;;;;6.63;3.88;;;21.80;99.90;;;;;;4129514;28;20041;-72
2021/07/21 08:18:19;;;;;;;8.38;4.90;;;21.80;99.90;;;;;;4132825;28;20137;-73
2021/07/21 08:20:20;;;;;;;7.95;4.65;;;21.90;99.90;;;;;;4129992;28;20045;-73
2021/07/21 08:22:20;;;;;;;7.93;4.57;;;21.90;99.90;;;;;;4131792;28;20049;-72
2021/07/21 08:24:21;;;;;;;7.50;4.40;;;21.90;99.90;;;;;;4131267;28;20042;-73
2021/07/21 08:26:22;;;;;;;8.30;4.63;;;21.90;99.90;;;;;;4131366;28;20493;-73
2021/07/21 08:28:24;;;;;;;7.28;4.38;;;22.00;99.90;;;;;;4130649;28;20049;-73
2021/07/21 08:30:25;;;;;;;6.75;4.45;;;22.00;99.90;;;;;;4131784;28;20229;-73
2021/07/21 08:32:25;;;;;;;9.00;4.28;;;22.10;99.90;;;;;;4114680;28;20026;-73
2021/07/21 08:34:26;;;;;;;8.60;4.57;;;22.10;99.90;;;;;;4113418;28;20066;-73
2021/07/21 08:36:28;;;;;;;7.95;4.28;;;22.20;99.90;;;;;;4111167;28;20039;-73
2021/07/21 08:38:29;;;;;;;7.00;4.20;;;22.20;99.90;;;;;;4114056;28;20047;-73
2021/07/21 08:40:31;;;;;;;7.43;3.88;;;22.30;99.90;;;;;;4127609;28;20209;-73
2021/07/21 08:42:32;;;;;;;7.23;4.30;;;22.30;99.90;;;;;;4111902;28;20046;-73
2021/07/21 08:44:35;;;;;;;7.03;4.25;;;22.40;99.90;;;;;;4132035;28;20290;-73
2021/07/21 08:46:37;;;;;;;9.65;5.47;;;22.40;99.90;;;;;;4132303;28;20546;-73
2021/07/21 08:48:39;;;;;;;8.05;4.60;;;22.50;99.90;;;;;;4128461;28;20050;-73
2021/07/21 08:50:45;;;;;;;6.68;4.13;;;22.50;99.90;;;;;;4129637;28;20698;-73
2021/07/21 08:52:47;;;;;;;6.97;3.97;;;22.60;99.90;;;;;;4126202;28;20030;-73
2021/07/21 08:54:49;;;;;;;9.10;4.72;;;22.60;99.90;;;;;;4113890;28;20034;-73
2021/07/21 08:56:50;;;;;;;6.60;3.95;;;22.60;99.00;;;;;;4133168;28;20042;-73
2021/07/21 08:58:51;;;;;;;7.72;4.53;;;22.60;99.50;;;;;;4131298;28;20068;-73
2021/07/21 09:00:52;;;;;;;7.50;4.18;;;22.60;99.70;;;;;;4128371;28;20050;-73
2021/07/21 09:02:53;;;;;;;6.40;3.92;;;22.70;99.30;;;;;;4133407;28;20121;-73
2021/07/21 09:04:54;;;;;;;6.28;4.15;;;22.60;98.40;;;;;;4116481;28;20076;-73
2021/07/21 09:06:54;;;;;;;7.15;4.55;;;22.70;98.50;;;;;;4132574;28;20113;-74
2021/07/21 09:08:55;;;;;;;8.23;5.03;;;22.70;99.90;;;;;;4113783;28;20419;-73
2021/07/21 09:10:56;;;;;;;8.32;4.47;;;22.70;99.70;;;;;;4113789;28;20098;-73
2021/07/21 09:12:57;;;;;;;7.55;4.50;;;22.70;99.90;;;;;;4134650;28;20054;-73
2021/07/21 09:14:58;;;;;;;8.73;4.70;;;22.80;99.90;;;;;;4134401;28;20687;-73
2021/07/21 09:17:26;;;;;;;7.57;4.22;;;22.80;99.90;;;;;;4128074;28;20053;-73
2021/07/21 09:19:35;;;;;;;6.30;3.58;;;22.80;99.90;;;;;;4131388;28;20057;-73
2021/07/21 09:21:36;;;;;;;6.18;4.20;;;22.80;99.90;;;;;;4132865;28;20044;-73
2021/07/21 09:23:45;;;;;;;6.70;4.13;;;22.80;98.60;;;;;;4130109;28;20039;-73
2021/07/21 09:25:47;;;;;;;6.70;4.25;;;22.90;99.90;;;;;;4130700;28;20077;-73
2021/07/21 09:27:53;;;;;;;7.28;4.28;;;22.90;97.70;;;;;;4135655;28;20026;-73
2021/07/21 09:29:54;;;;;;;7.15;4.20;;;22.90;97.40;;;;;;4135289;28;20789;-73
2021/07/21 09:31:59;;;;;;;6.25;4.30;;;23.00;99.30;;;;;;4133643;28;20031;-73
2021/07/21 09:34:14;;;;;;;7.65;4.25;;;23.00;99.30;;;;;;4138522;28;22802;-73
2021/07/21 09:36:19;;;;;;;7.10;3.50;;;23.10;97.80;;;;;;4139288;28;20082;-73
2021/07/21 09:38:23;;;;;;;6.53;4.15;;;23.10;99.30;;;;;;4117784;28;20061;-73
2021/07/21 09:40:25;;;;;;;6.38;4.13;;;23.10;98.50;;;;;;4130412;28;20037;-73
2021/07/21 09:42:29;;;;;;;4.93;3.77;;;23.10;98.00;;;;;;4135384;28;20026;-73
2021/07/21 09:44:41;;;;;;;9.90;3.85;;;23.10;95.10;;;;;;4130299;28;20622;-73
2021/07/21 09:46:41;;;;;;;6.45;4.13;;;23.10;94.40;;;;;;4132772;28;20038;-73
2021/07/21 09:48:43;;;;;;;7.00;3.80;;;23.10;93.90;;;;;;4114839;28;20052;-73
2021/07/21 09:50:46;;;;;;;5.85;3.72;;;23.10;94.30;;;;;;4129859;28;20479;-73
2021/07/21 09:52:48;;;;;;;6.03;4.05;;;23.10;93.30;;;;;;4124287;28;20110;-73
2021/07/21 09:55:05;;;;;;;6.78;3.65;;;23.20;93.60;;;;;;4120457;28;20045;-73
2021/07/21 09:57:13;;;;;;;5.75;3.67;;;23.20;93.00;;;;;;4130547;28;20053;-73
2021/07/21 09:59:32;;;;;;;8.52;4.50;;;23.30;94.20;;;;;;4128421;28;20046;-73
2021/07/21 10:01:32;;;;;;;6.43;4.22;;;23.30;93.40;;;;;;4133913;28;20082;-73
2021/07/21 10:03:39;;;;;;;7.20;4.32;;;23.30;94.20;;;;;;4119291;28;20031;-73
2021/07/21 10:06:10;;;;;;;5.78;3.70;;;23.30;92.10;;;;;;4137798;28;20625;-73
2021/07/21 10:08:44;;;;;;;8.35;3.92;;;23.30;93.00;;;;;;4113937;28;20380;-73
2021/07/21 10:10:44;;;;;;;8.73;4.45;;;23.30;92.70;;;;;;4114548;28;20078;-73
2021/07/21 10:13:07;;;;;;;7.88;4.50;;;23.40;92.10;;;;;;4128995;28;20037;-73
2021/07/21 10:15:08;;;;;;;5.82;4.05;;;23.30;92.00;;;;;;4115060;28;20034;-73
2021/07/21 10:17:15;;;;;;;6.53;4.18;;;23.40;92.00;;;;;;4136663;28;20130;-73
2021/07/21 10:19:22;;;;;;;6.60;4.00;;;23.40;93.10;;;;;;4120044;28;20039;-73
2021/07/21 10:21:22;;;;;;;7.63;4.22;;;23.50;94.40;;;;;;4114718;28;20042;-74
2021/07/21 10:23:26;;;;;;;8.57;4.65;;;23.50;94.60;;;;;;4116197;28;20070;-73
2021/07/21 10:25:26;;;;;;;6.20;4.28;;;23.60;92.10;;;;;;4100499;28;20066;-73
2021/07/21 10:27:28;;;;;;;8.15;4.80;;;23.60;91.60;;;;;;4118657;28;20031;-73
2021/07/21 10:29:28;;;;;;;6.90;4.32;;;23.70;91.30;;;;;;4138515;28;20034;-73
2021/07/21 10:31:30;;;;;;;6.75;4.50;;;23.60;91.60;;;;;;4131300;28;20052;-73
2021/07/21 10:33:32;;;;;;;8.35;4.20;;;23.70;91.80;;;;;;4130809;28;20045;-73
2021/07/21 10:35:32;;;;;;;8.48;5.35;;;23.70;92.00;;;;;;4134221;28;20977;-73
2021/07/21 10:37:33;;;;;;;10.52;5.53;;;23.70;93.10;;;;;;4116056;28;20050;-73
2021/07/21 10:39:36;;;;;;;8.40;5.25;;;23.70;92.00;;;;;;4117272;28;20098;-73
2021/07/21 10:41:37;;;;;;;;;;;23.70;92.90;;;;;;4132253;28;20062;-73
2021/07/21 10:43:37;;;;;;;7.70;4.53;;;23.70;92.40;;;;;;4133170;28;19921;-73
2021/07/21 10:45:38;;;;;;;8.80;4.93;;;23.80;91.50;;;;;;4113162;28;20083;-73